Terminal Aerodrome Forecast
Issued by NWS Wichita, KS

Home | Current Version | Previous Version | Text Only | Print | Product List | Glossary On
Versions: 1 2 3 4 5 6 7 8 9 10 11 12 13
182
FTUS43 KICT 250522
TAFICT
TAF
KICT 250522Z 2506/2606 15010KT P6SM VCSH BKN100
     FM251500 17013KT P6SM VCSH OVC080
     FM251900 16012KT P6SM VCTS OVC060CB
     FM260000 09008KT 6SM SHRA VCTS OVC040CB
     FM260400 03007KT 5SM SHRA OVC030=

USA.gov is the U.S. government's official web portal to all federal, state and local government web resources and services.